sensor_id;sensor_type;location;lat;lon;timestamp;P1;durP1;ratioP1;P2;durP2;ratioP2
43646;SDS011;56152;49.996;18.980;2023-06-14T00:03:20;9.73;;;6.13;;
43646;SDS011;56152;49.996;18.980;2023-06-14T00:08:28;15.98;;;7.65;;
43646;SDS011;56152;49.996;18.980;2023-06-14T00:13:30;13.80;;;8.00;;
43646;SDS011;56152;49.996;18.980;2023-06-14T00:18:33;16.00;;;9.65;;
43646;SDS011;56152;49.996;18.980;2023-06-14T00:23:36;14.43;;;7.72;;
43646;SDS011;56152;49.996;18.980;2023-06-14T00:28:39;13.73;;;8.20;;
43646;SDS011;56152;49.996;18.980;2023-06-14T00:33:42;12.90;;;7.38;;
43646;SDS011;56152;49.996;18.980;2023-06-14T00:38:47;11.10;;;7.68;;
43646;SDS011;56152;49.996;18.980;2023-06-14T00:43:49;11.15;;;7.45;;
43646;SDS011;56152;49.996;18.980;2023-06-14T00:48:52;10.18;;;6.82;;
43646;SDS011;56152;49.996;18.980;2023-06-14T00:53:58;11.35;;;7.93;;
43646;SDS011;56152;49.996;18.980;2023-06-14T00:59:03;11.50;;;7.30;;
43646;SDS011;56152;49.996;18.980;2023-06-14T01:04:14;14.13;;;7.30;;
43646;SDS011;56152;49.996;18.980;2023-06-14T01:09:20;10.75;;;7.35;;
43646;SDS011;56152;49.996;18.980;2023-06-14T01:14:32;8.95;;;6.78;;
43646;SDS011;56152;49.996;18.980;2023-06-14T01:24:50;10.95;;;7.20;;
43646;SDS011;56152;49.996;18.980;2023-06-14T01:29:56;11.27;;;7.97;;
43646;SDS011;56152;49.996;18.980;2023-06-14T01:40:18;10.07;;;7.50;;
43646;SDS011;56152;49.996;18.980;2023-06-14T01:45:24;14.35;;;8.55;;
43646;SDS011;56152;49.996;18.980;2023-06-14T01:50:28;15.32;;;7.78;;
43646;SDS011;56152;49.996;18.980;2023-06-14T01:55:32;11.73;;;8.32;;
43646;SDS011;56152;49.996;18.980;2023-06-14T02:00:37;13.35;;;8.02;;
43646;SDS011;56152;49.996;18.980;2023-06-14T02:05:40;10.52;;;8.25;;
43646;SDS011;56152;49.996;18.980;2023-06-14T02:10:48;12.60;;;8.35;;
43646;SDS011;56152;49.996;18.980;2023-06-14T02:15:50;12.75;;;8.73;;
43646;SDS011;56152;49.996;18.980;2023-06-14T02:26:23;12.27;;;8.82;;
43646;SDS011;56152;49.996;18.980;2023-06-14T02:31:25;12.55;;;9.15;;
43646;SDS011;56152;49.996;18.980;2023-06-14T02:36:29;14.63;;;9.40;;
43646;SDS011;56152;49.996;18.980;2023-06-14T02:41:33;13.02;;;8.73;;
43646;SDS011;56152;49.996;18.980;2023-06-14T02:46:36;14.45;;;9.98;;
43646;SDS011;56152;49.996;18.980;2023-06-14T02:51:39;13.48;;;9.73;;
43646;SDS011;56152;49.996;18.980;2023-06-14T02:56:51;14.40;;;10.57;;
43646;SDS011;56152;49.996;18.980;2023-06-14T03:01:53;15.32;;;8.90;;
43646;SDS011;56152;49.996;18.980;2023-06-14T03:06:55;12.55;;;9.68;;
43646;SDS011;56152;49.996;18.980;2023-06-14T03:12:00;10.50;;;7.88;;
43646;SDS011;56152;49.996;18.980;2023-06-14T03:17:15;13.80;;;8.38;;
43646;SDS011;56152;49.996;18.980;2023-06-14T03:22:17;13.93;;;9.70;;
43646;SDS011;56152;49.996;18.980;2023-06-14T03:27:21;15.10;;;9.40;;
43646;SDS011;56152;49.996;18.980;2023-06-14T03:32:23;15.38;;;10.00;;
43646;SDS011;56152;49.996;18.980;2023-06-14T03:37:25;13.70;;;9.18;;
43646;SDS011;56152;49.996;18.980;2023-06-14T03:42:30;11.45;;;8.93;;
43646;SDS011;56152;49.996;18.980;2023-06-14T03:47:32;12.57;;;9.02;;
43646;SDS011;56152;49.996;18.980;2023-06-14T03:52:42;11.40;;;8.50;;
43646;SDS011;56152;49.996;18.980;2023-06-14T03:57:46;13.25;;;7.78;;
43646;SDS011;56152;49.996;18.980;2023-06-14T04:02:48;12.63;;;8.25;;
43646;SDS011;56152;49.996;18.980;2023-06-14T04:07:51;12.20;;;7.63;;
43646;SDS011;56152;49.996;18.980;2023-06-14T04:13:07;12.88;;;8.30;;
43646;SDS011;56152;49.996;18.980;2023-06-14T04:18:12;13.00;;;8.48;;
43646;SDS011;56152;49.996;18.980;2023-06-14T04:23:19;10.73;;;8.93;;
43646;SDS011;56152;49.996;18.980;2023-06-14T04:28:26;12.60;;;7.75;;
43646;SDS011;56152;49.996;18.980;2023-06-14T04:38:53;13.18;;;8.60;;
43646;SDS011;56152;49.996;18.980;2023-06-14T04:44:03;12.82;;;8.88;;
43646;SDS011;56152;49.996;18.980;2023-06-14T04:49:05;11.18;;;7.47;;
43646;SDS011;56152;49.996;18.980;2023-06-14T04:59:22;8.55;;;6.15;;
43646;SDS011;56152;49.996;18.980;2023-06-14T05:04:33;10.73;;;6.55;;
43646;SDS011;56152;49.996;18.980;2023-06-14T05:09:39;11.80;;;8.27;;
43646;SDS011;56152;49.996;18.980;2023-06-14T05:14:43;11.35;;;8.48;;
43646;SDS011;56152;49.996;18.980;2023-06-14T05:19:45;11.77;;;6.85;;
43646;SDS011;56152;49.996;18.980;2023-06-14T05:24:47;11.20;;;8.57;;
43646;SDS011;56152;49.996;18.980;2023-06-14T05:30:00;15.15;;;9.45;;
43646;SDS011;56152;49.996;18.980;2023-06-14T05:35:04;13.00;;;8.60;;
43646;SDS011;56152;49.996;18.980;2023-06-14T05:40:07;20.88;;;9.88;;
43646;SDS011;56152;49.996;18.980;2023-06-14T05:45:12;13.30;;;8.50;;
43646;SDS011;56152;49.996;18.980;2023-06-14T05:50:20;14.80;;;10.85;;
43646;SDS011;56152;49.996;18.980;2023-06-14T05:55:22;16.70;;;10.63;;
43646;SDS011;56152;49.996;18.980;2023-06-14T06:00:26;10.65;;;8.20;;
43646;SDS011;56152;49.996;18.980;2023-06-14T06:05:28;20.00;;;11.10;;
43646;SDS011;56152;49.996;18.980;2023-06-14T06:10:39;18.95;;;9.90;;
43646;SDS011;56152;49.996;18.980;2023-06-14T06:15:43;12.98;;;9.23;;
43646;SDS011;56152;49.996;18.980;2023-06-14T06:20:45;13.45;;;8.43;;
43646;SDS011;56152;49.996;18.980;2023-06-14T06:26:03;13.73;;;7.93;;
43646;SDS011;56152;49.996;18.980;2023-06-14T06:31:07;12.45;;;8.82;;
43646;SDS011;56152;49.996;18.980;2023-06-14T06:36:11;11.27;;;7.70;;
43646;SDS011;56152;49.996;18.980;2023-06-14T06:41:13;25.48;;;10.55;;
43646;SDS011;56152;49.996;18.980;2023-06-14T06:46:28;15.45;;;9.38;;
43646;SDS011;56152;49.996;18.980;2023-06-14T06:51:30;12.20;;;6.25;;
43646;SDS011;56152;49.996;18.980;2023-06-14T06:56:34;9.90;;;7.00;;
43646;SDS011;56152;49.996;18.980;2023-06-14T07:01:41;12.82;;;7.32;;
43646;SDS011;56152;49.996;18.980;2023-06-14T07:06:56;11.10;;;6.50;;
43646;SDS011;56152;49.996;18.980;2023-06-14T07:11:58;13.93;;;8.57;;
43646;SDS011;56152;49.996;18.980;2023-06-14T07:17:04;8.23;;;5.20;;
43646;SDS011;56152;49.996;18.980;2023-06-14T07:22:06;12.18;;;6.75;;
43646;SDS011;56152;49.996;18.980;2023-06-14T07:27:16;10.93;;;6.05;;
43646;SDS011;56152;49.996;18.980;2023-06-14T07:32:20;13.85;;;8.98;;
43646;SDS011;56152;49.996;18.980;2023-06-14T07:37:24;10.00;;;6.13;;
43646;SDS011;56152;49.996;18.980;2023-06-14T07:42:25;13.68;;;7.78;;
43646;SDS011;56152;49.996;18.980;2023-06-14T07:53:01;10.90;;;8.18;;
43646;SDS011;56152;49.996;18.980;2023-06-14T07:58:03;10.48;;;6.45;;
43646;SDS011;56152;49.996;18.980;2023-06-14T08:03:13;11.52;;;7.03;;
43646;SDS011;56152;49.996;18.980;2023-06-14T08:08:17;8.60;;;6.60;;
43646;SDS011;56152;49.996;18.980;2023-06-14T08:13:24;13.57;;;8.20;;
43646;SDS011;56152;49.996;18.980;2023-06-14T08:18:27;8.10;;;5.50;;
43646;SDS011;56152;49.996;18.980;2023-06-14T08:23:35;8.57;;;5.47;;
43646;SDS011;56152;49.996;18.980;2023-06-14T08:28:37;8.55;;;6.47;;
43646;SDS011;56152;49.996;18.980;2023-06-14T08:33:39;11.68;;;6.53;;
43646;SDS011;56152;49.996;18.980;2023-06-14T08:38:46;8.27;;;5.38;;
43646;SDS011;56152;49.996;18.980;2023-06-14T08:43:48;16.17;;;7.63;;
43646;SDS011;56152;49.996;18.980;2023-06-14T08:48:50;10.95;;;7.72;;
43646;SDS011;56152;49.996;18.980;2023-06-14T08:53:58;13.10;;;8.15;;
43646;SDS011;56152;49.996;18.980;2023-06-14T08:59:01;7.60;;;5.38;;
43646;SDS011;56152;49.996;18.980;2023-06-14T09:04:06;8.57;;;6.10;;
43646;SDS011;56152;49.996;18.980;2023-06-14T09:09:13;9.50;;;6.50;;
43646;SDS011;56152;49.996;18.980;2023-06-14T09:14:15;18.15;;;10.88;;
43646;SDS011;56152;49.996;18.980;2023-06-14T09:19:21;15.02;;;8.85;;
43646;SDS011;56152;49.996;18.980;2023-06-14T09:24:30;17.75;;;10.20;;
43646;SDS011;56152;49.996;18.980;2023-06-14T09:29:32;11.70;;;6.80;;
43646;SDS011;56152;49.996;18.980;2023-06-14T09:34:37;10.73;;;7.10;;
43646;SDS011;56152;49.996;18.980;2023-06-14T09:39:53;10.45;;;7.53;;
43646;SDS011;56152;49.996;18.980;2023-06-14T09:45:00;14.82;;;10.55;;
43646;SDS011;56152;49.996;18.980;2023-06-14T09:50:05;13.13;;;8.68;;
43646;SDS011;56152;49.996;18.980;2023-06-14T09:55:11;10.10;;;8.07;;
43646;SDS011;56152;49.996;18.980;2023-06-14T10:00:14;11.68;;;7.97;;
43646;SDS011;56152;49.996;18.980;2023-06-14T10:05:19;17.20;;;11.20;;
43646;SDS011;56152;49.996;18.980;2023-06-14T10:10:24;15.40;;;9.90;;
43646;SDS011;56152;49.996;18.980;2023-06-14T10:15:28;13.65;;;9.18;;
43646;SDS011;56152;49.996;18.980;2023-06-14T10:20:37;11.02;;;8.02;;
43646;SDS011;56152;49.996;18.980;2023-06-14T10:26:06;9.32;;;7.03;;
43646;SDS011;56152;49.996;18.980;2023-06-14T10:31:08;12.82;;;8.48;;
43646;SDS011;56152;49.996;18.980;2023-06-14T10:36:24;17.35;;;12.10;;
43646;SDS011;56152;49.996;18.980;2023-06-14T10:41:52;14.25;;;8.45;;
43646;SDS011;56152;49.996;18.980;2023-06-14T10:46:56;14.55;;;9.43;;
43646;SDS011;56152;49.996;18.980;2023-06-14T10:52:02;10.45;;;7.38;;
43646;SDS011;56152;49.996;18.980;2023-06-14T10:57:08;16.90;;;8.80;;
43646;SDS011;56152;49.996;18.980;2023-06-14T11:02:20;10.20;;;7.05;;
43646;SDS011;56152;49.996;18.980;2023-06-14T11:07:47;12.48;;;8.07;;
43646;SDS011;56152;49.996;18.980;2023-06-14T11:13:02;8.82;;;5.95;;
43646;SDS011;56152;49.996;18.980;2023-06-14T11:18:07;7.68;;;5.97;;
43646;SDS011;56152;49.996;18.980;2023-06-14T11:23:10;7.82;;;5.43;;
43646;SDS011;56152;49.996;18.980;2023-06-14T11:33:21;7.43;;;5.25;;
43646;SDS011;56152;49.996;18.980;2023-06-14T11:38:25;11.40;;;5.10;;
43646;SDS011;56152;49.996;18.980;2023-06-14T11:43:34;8.05;;;5.25;;
43646;SDS011;56152;49.996;18.980;2023-06-14T11:48:37;6.40;;;4.43;;
43646;SDS011;56152;49.996;18.980;2023-06-14T11:53:42;4.22;;;3.38;;
43646;SDS011;56152;49.996;18.980;2023-06-14T11:58:46;5.18;;;4.47;;
43646;SDS011;56152;49.996;18.980;2023-06-14T12:03:55;6.85;;;3.35;;
43646;SDS011;56152;49.996;18.980;2023-06-14T12:08:56;6.70;;;3.72;;
43646;SDS011;56152;49.996;18.980;2023-06-14T12:19:27;9.07;;;3.92;;
43646;SDS011;56152;49.996;18.980;2023-06-14T12:24:31;5.93;;;3.83;;
43646;SDS011;56152;49.996;18.980;2023-06-14T12:29:33;4.40;;;3.50;;
43646;SDS011;56152;49.996;18.980;2023-06-14T12:34:37;3.80;;;2.88;;
43646;SDS011;56152;49.996;18.980;2023-06-14T12:39:39;5.13;;;2.97;;
43646;SDS011;56152;49.996;18.980;2023-06-14T12:44:41;12.90;;;2.40;;
43646;SDS011;56152;49.996;18.980;2023-06-14T12:49:54;4.60;;;2.47;;
43646;SDS011;56152;49.996;18.980;2023-06-14T12:54:56;12.75;;;3.33;;
43646;SDS011;56152;49.996;18.980;2023-06-14T13:05:27;4.15;;;2.35;;
43646;SDS011;56152;49.996;18.980;2023-06-14T13:10:31;5.85;;;2.20;;
43646;SDS011;56152;49.996;18.980;2023-06-14T13:15:36;2.58;;;2.13;;
43646;SDS011;56152;49.996;18.980;2023-06-14T13:20:39;3.35;;;2.20;;
43646;SDS011;56152;49.996;18.980;2023-06-14T13:25:42;21.90;;;2.70;;
43646;SDS011;56152;49.996;18.980;2023-06-14T13:30:47;5.45;;;2.10;;
43646;SDS011;56152;49.996;18.980;2023-06-14T13:35:50;7.75;;;3.08;;
43646;SDS011;56152;49.996;18.980;2023-06-14T13:40:53;8.57;;;3.83;;
43646;SDS011;56152;49.996;18.980;2023-06-14T13:45:58;6.38;;;2.28;;
43646;SDS011;56152;49.996;18.980;2023-06-14T13:51:02;2.88;;;2.40;;
43646;SDS011;56152;49.996;18.980;2023-06-14T13:56:05;3.25;;;2.55;;
43646;SDS011;56152;49.996;18.980;2023-06-14T14:01:07;3.03;;;2.35;;
43646;SDS011;56152;49.996;18.980;2023-06-14T14:06:11;5.80;;;2.90;;
43646;SDS011;56152;49.996;18.980;2023-06-14T14:11:21;4.78;;;2.55;;
43646;SDS011;56152;49.996;18.980;2023-06-14T14:16:24;4.97;;;2.85;;
43646;SDS011;56152;49.996;18.980;2023-06-14T14:21:28;3.33;;;2.88;;
43646;SDS011;56152;49.996;18.980;2023-06-14T14:26:30;4.80;;;2.55;;
43646;SDS011;56152;49.996;18.980;2023-06-14T14:31:32;4.22;;;2.40;;
43646;SDS011;56152;49.996;18.980;2023-06-14T14:36:36;4.63;;;2.38;;
43646;SDS011;56152;49.996;18.980;2023-06-14T14:41:41;4.15;;;2.40;;
43646;SDS011;56152;49.996;18.980;2023-06-14T14:46:52;3.30;;;2.28;;
43646;SDS011;56152;49.996;18.980;2023-06-14T14:51:57;4.78;;;2.72;;
43646;SDS011;56152;49.996;18.980;2023-06-14T14:57:05;7.55;;;3.33;;
43646;SDS011;56152;49.996;18.980;2023-06-14T15:02:07;5.13;;;3.10;;
43646;SDS011;56152;49.996;18.980;2023-06-14T15:07:12;4.43;;;2.40;;
43646;SDS011;56152;49.996;18.980;2023-06-14T15:12:17;3.17;;;2.63;;
43646;SDS011;56152;49.996;18.980;2023-06-14T15:17:20;2.80;;;2.30;;
43646;SDS011;56152;49.996;18.980;2023-06-14T15:22:28;5.20;;;2.60;;
43646;SDS011;56152;49.996;18.980;2023-06-14T15:27:37;8.23;;;2.55;;
43646;SDS011;56152;49.996;18.980;2023-06-14T15:32:39;6.00;;;2.85;;
43646;SDS011;56152;49.996;18.980;2023-06-14T15:37:42;3.85;;;2.95;;
43646;SDS011;56152;49.996;18.980;2023-06-14T15:42:44;5.53;;;2.67;;
43646;SDS011;56152;49.996;18.980;2023-06-14T15:47:46;6.30;;;3.72;;
43646;SDS011;56152;49.996;18.980;2023-06-14T15:52:57;7.88;;;3.28;;
43646;SDS011;56152;49.996;18.980;2023-06-14T15:57:59;7.00;;;3.35;;
43646;SDS011;56152;49.996;18.980;2023-06-14T16:03:02;7.85;;;3.67;;
43646;SDS011;56152;49.996;18.980;2023-06-14T16:08:06;16.38;;;11.02;;
43646;SDS011;56152;49.996;18.980;2023-06-14T16:13:16;14.43;;;8.50;;
43646;SDS011;56152;49.996;18.980;2023-06-14T16:23:22;4.63;;;2.97;;
43646;SDS011;56152;49.996;18.980;2023-06-14T16:28:24;6.10;;;4.43;;
43646;SDS011;56152;49.996;18.980;2023-06-14T16:33:30;5.75;;;3.78;;
43646;SDS011;56152;49.996;18.980;2023-06-14T16:38:50;4.75;;;2.90;;
43646;SDS011;56152;49.996;18.980;2023-06-14T16:43:52;4.22;;;3.47;;
43646;SDS011;56152;49.996;18.980;2023-06-14T16:48:54;6.68;;;3.13;;
43646;SDS011;56152;49.996;18.980;2023-06-14T16:54:03;5.50;;;3.40;;
43646;SDS011;56152;49.996;18.980;2023-06-14T16:59:11;10.30;;;3.58;;
43646;SDS011;56152;49.996;18.980;2023-06-14T17:04:15;7.68;;;3.60;;
43646;SDS011;56152;49.996;18.980;2023-06-14T17:09:24;5.35;;;3.35;;
43646;SDS011;56152;49.996;18.980;2023-06-14T17:14:32;7.68;;;3.95;;
43646;SDS011;56152;49.996;18.980;2023-06-14T17:19:36;5.90;;;3.80;;
43646;SDS011;56152;49.996;18.980;2023-06-14T17:24:49;5.90;;;4.45;;
43646;SDS011;56152;49.996;18.980;2023-06-14T17:29:51;7.70;;;4.18;;
43646;SDS011;56152;49.996;18.980;2023-06-14T17:34:53;6.65;;;4.30;;
43646;SDS011;56152;49.996;18.980;2023-06-14T17:39:57;6.10;;;3.72;;
43646;SDS011;56152;49.996;18.980;2023-06-14T17:50:04;12.85;;;5.40;;
43646;SDS011;56152;49.996;18.980;2023-06-14T17:55:15;6.20;;;4.07;;
43646;SDS011;56152;49.996;18.980;2023-06-14T18:00:17;12.27;;;5.13;;
43646;SDS011;56152;49.996;18.980;2023-06-14T18:05:23;6.88;;;4.25;;
43646;SDS011;56152;49.996;18.980;2023-06-14T18:10:29;6.38;;;3.92;;
43646;SDS011;56152;49.996;18.980;2023-06-14T18:15:31;15.18;;;6.05;;
43646;SDS011;56152;49.996;18.980;2023-06-14T18:20:41;12.10;;;4.38;;
43646;SDS011;56152;49.996;18.980;2023-06-14T18:25:47;8.95;;;5.07;;
43646;SDS011;56152;49.996;18.980;2023-06-14T18:30:53;9.27;;;5.30;;
43646;SDS011;56152;49.996;18.980;2023-06-14T18:35:55;9.45;;;5.93;;
43646;SDS011;56152;49.996;18.980;2023-06-14T18:40:59;13.95;;;9.65;;
43646;SDS011;56152;49.996;18.980;2023-06-14T18:46:03;22.38;;;13.70;;
43646;SDS011;56152;49.996;18.980;2023-06-14T18:51:05;12.32;;;8.30;;
43646;SDS011;56152;49.996;18.980;2023-06-14T19:07:56;15.85;;;9.10;;
43646;SDS011;56152;49.996;18.980;2023-06-14T19:12:58;11.90;;;7.55;;
43646;SDS011;56152;49.996;18.980;2023-06-14T19:18:04;14.63;;;10.32;;
43646;SDS011;56152;49.996;18.980;2023-06-14T19:23:08;21.17;;;12.40;;
43646;SDS011;56152;49.996;18.980;2023-06-14T19:28:13;20.52;;;13.63;;
43646;SDS011;56152;49.996;18.980;2023-06-14T19:33:21;20.23;;;12.32;;
43646;SDS011;56152;49.996;18.980;2023-06-14T19:38:23;19.15;;;10.13;;
43646;SDS011;56152;49.996;18.980;2023-06-14T19:54:16;19.48;;;13.07;;
43646;SDS011;56152;49.996;18.980;2023-06-14T19:59:26;15.80;;;10.10;;
43646;SDS011;56152;49.996;18.980;2023-06-14T20:04:32;13.75;;;9.93;;
43646;SDS011;56152;49.996;18.980;2023-06-14T20:09:36;18.65;;;10.73;;
43646;SDS011;56152;49.996;18.980;2023-06-14T20:14:37;15.50;;;10.57;;
43646;SDS011;56152;49.996;18.980;2023-06-14T20:19:41;12.57;;;9.43;;
43646;SDS011;56152;49.996;18.980;2023-06-14T20:24:46;12.27;;;8.65;;
43646;SDS011;56152;49.996;18.980;2023-06-14T20:29:54;13.50;;;8.90;;
43646;SDS011;56152;49.996;18.980;2023-06-14T20:35:03;13.63;;;9.75;;
43646;SDS011;56152;49.996;18.980;2023-06-14T20:40:20;11.77;;;8.30;;
43646;SDS011;56152;49.996;18.980;2023-06-14T20:45:26;10.95;;;8.10;;
43646;SDS011;56152;49.996;18.980;2023-06-14T20:50:33;15.50;;;8.68;;
43646;SDS011;56152;49.996;18.980;2023-06-14T20:55:42;12.98;;;8.10;;
43646;SDS011;56152;49.996;18.980;2023-06-14T21:00:46;9.45;;;7.28;;
43646;SDS011;56152;49.996;18.980;2023-06-14T21:05:58;12.05;;;10.45;;
43646;SDS011;56152;49.996;18.980;2023-06-14T21:11:01;8.48;;;7.55;;
43646;SDS011;56152;49.996;18.980;2023-06-14T21:16:06;13.20;;;11.82;;
43646;SDS011;56152;49.996;18.980;2023-06-14T21:21:10;15.55;;;11.65;;
43646;SDS011;56152;49.996;18.980;2023-06-14T21:26:14;14.57;;;11.57;;
43646;SDS011;56152;49.996;18.980;2023-06-14T21:31:17;10.40;;;8.00;;
43646;SDS011;56152;49.996;18.980;2023-06-14T21:36:26;11.45;;;7.47;;
43646;SDS011;56152;49.996;18.980;2023-06-14T21:47:09;11.07;;;7.13;;
43646;SDS011;56152;49.996;18.980;2023-06-14T21:52:26;8.55;;;6.22;;
43646;SDS011;56152;49.996;18.980;2023-06-14T21:57:41;8.63;;;5.95;;
43646;SDS011;56152;49.996;18.980;2023-06-14T22:02:43;17.00;;;8.48;;
43646;SDS011;56152;49.996;18.980;2023-06-14T22:07:50;13.68;;;11.00;;
43646;SDS011;56152;49.996;18.980;2023-06-14T22:12:53;17.00;;;12.27;;
43646;SDS011;56152;49.996;18.980;2023-06-14T22:18:05;20.77;;;12.30;;
43646;SDS011;56152;49.996;18.980;2023-06-14T22:23:08;12.20;;;9.00;;
43646;SDS011;56152;49.996;18.980;2023-06-14T22:33:39;12.70;;;8.25;;
43646;SDS011;56152;49.996;18.980;2023-06-14T22:38:43;10.50;;;6.93;;
43646;SDS011;56152;49.996;18.980;2023-06-14T22:43:55;8.80;;;6.90;;
43646;SDS011;56152;49.996;18.980;2023-06-14T22:48:58;8.77;;;6.47;;
43646;SDS011;56152;49.996;18.980;2023-06-14T22:54:04;17.08;;;8.50;;
43646;SDS011;56152;49.996;18.980;2023-06-14T22:59:10;25.50;;;11.52;;
43646;SDS011;56152;49.996;18.980;2023-06-14T23:04:12;22.23;;;12.00;;
43646;SDS011;56152;49.996;18.980;2023-06-14T23:09:22;20.83;;;12.05;;
43646;SDS011;56152;49.996;18.980;2023-06-14T23:14:24;20.08;;;13.05;;
43646;SDS011;56152;49.996;18.980;2023-06-14T23:24:41;17.70;;;13.98;;
43646;SDS011;56152;49.996;18.980;2023-06-14T23:29:43;20.02;;;10.18;;
43646;SDS011;56152;49.996;18.980;2023-06-14T23:34:45;19.42;;;10.70;;
43646;SDS011;56152;49.996;18.980;2023-06-14T23:39:55;13.45;;;9.35;;
43646;SDS011;56152;49.996;18.980;2023-06-14T23:44:58;15.63;;;11.07;;
43646;SDS011;56152;49.996;18.980;2023-06-14T23:50:01;18.10;;;9.15;;
43646;SDS011;56152;49.996;18.980;2023-06-14T23:55:07;29.98;;;13.73;;
